Time;durP1;ratioP1;P1;durP2;ratioP2;P2;SDS_P1;SDS_P2;PMS_P1;PMS_P2;Temp;Humidity;BMP_temperature;BMP_pressure;BME280_temperature;BME280_humidity;BME280_pressure;Samples;Min_cycle;Max_cycle;Signal;HPM_P1;HPM_P2
2021/10/21 00:01:22;;;;;;;10.25;3.17;;;;;;;12.55;93.39;98802.09;5014255;28;20059;-43
2021/10/21 00:03:47;;;;;;;11.15;3.30;;;;;;;12.43;93.78;98791.13;5013974;28;20025;-43
2021/10/21 00:06:13;;;;;;;9.68;3.42;;;;;;;12.51;93.99;98785.47;5014483;28;20034;-43
2021/10/21 00:08:38;;;;;;;9.77;3.35;;;;;;;12.59;94.06;98784.22;5014171;28;20492;-43
2021/10/21 00:11:03;;;;;;;10.77;3.13;;;;;;;12.74;93.16;98771.38;5013859;28;20038;-43
2021/10/21 00:13:29;;;;;;;8.60;2.80;;;;;;;12.83;93.04;98745.75;5013896;28;20026;-50
2021/10/21 00:15:54;;;;;;;7.38;2.63;;;;;;;12.88;92.04;98740.63;5013880;28;20419;-43
2021/10/21 00:18:19;;;;;;;8.82;3.08;;;;;;;12.89;92.45;98690.34;5013858;28;20108;-43
2021/10/21 00:20:45;;;;;;;7.43;3.13;;;;;;;12.91;92.14;98674.53;5013829;28;20472;-43
2021/10/21 00:23:10;;;;;;;7.00;2.90;;;;;;;12.92;92.30;98647.56;5014018;28;20468;-43
2021/10/21 00:25:35;;;;;;;11.65;3.90;;;;;;;12.90;93.09;98619.31;5014563;28;20101;-43
2021/10/21 00:28:00;;;;;;;9.18;3.90;;;;;;;13.01;93.52;98599.38;5013760;28;20032;-43
2021/10/21 00:30:26;;;;;;;10.30;3.78;;;;;;;13.00;93.72;98597.81;5013665;28;20032;-42
2021/10/21 00:32:52;;;;;;;16.65;4.50;;;;;;;13.06;93.83;98589.00;5013629;28;20473;-43
2021/10/21 00:35:17;;;;;;;8.43;4.38;;;;;;;13.22;93.28;98590.59;5013639;28;20030;-43
2021/10/21 00:37:43;;;;;;;11.23;4.45;;;;;;;13.32;92.66;98582.06;5013693;28;20191;-43
2021/10/21 00:40:09;;;;;;;11.45;4.30;;;;;;;13.38;92.51;98575.06;5013618;28;20018;-43
2021/10/21 00:42:34;;;;;;;10.35;4.07;;;;;;;13.32;93.05;98572.50;5013404;28;20061;-43
2021/10/21 00:44:59;;;;;;;13.10;4.25;;;;;;;13.32;92.79;98550.94;5013597;28;20062;-43
2021/10/21 00:47:25;;;;;;;7.50;3.63;;;;;;;13.34;92.95;98533.31;5013551;28;20025;-43
2021/10/21 00:49:51;;;;;;;9.25;4.20;;;;;;;13.40;92.84;98521.91;5013476;28;20022;-43
2021/10/21 00:52:16;;;;;;;11.10;3.70;;;;;;;13.41;91.92;98520.13;5013733;28;20087;-43
2021/10/21 00:54:43;;;;;;;11.98;3.75;;;;;;;13.53;90.78;98500.63;5013454;28;20049;-43
2021/10/21 00:57:13;;;;;;;7.93;3.42;;;;;;;13.56;90.98;98491.53;5013484;28;20029;-52
2021/10/21 00:59:40;;;;;;;9.05;3.90;;;;;;;13.52;91.18;98477.53;5017051;28;20518;-44
2021/10/21 01:02:06;;;;;;;6.38;3.78;;;;;;;13.49;91.25;98463.28;5017295;28;20026;-43
2021/10/21 01:04:31;;;;;;;7.03;3.60;;;;;;;13.54;91.05;98468.44;5017519;28;20524;-43
2021/10/21 01:06:56;;;;;;;8.50;3.38;;;;;;;13.45;92.30;98596.38;5017150;28;20037;-43
2021/10/21 01:09:22;;;;;;;7.95;1.88;;;;;;;12.14;91.21;98614.53;5017359;28;20030;-42
2021/10/21 01:11:50;;;;;;;4.22;1.50;;;;;;;11.92;91.54;98617.25;5017653;28;20083;-42
2021/10/21 01:14:16;;;;;;;6.70;1.30;;;;;;;12.00;90.80;98616.78;5018117;28;20029;-42
2021/10/21 01:16:41;;;;;;;4.35;1.10;;;;;;;11.91;89.61;98621.66;5017242;28;20033;-42
2021/10/21 01:19:21;;;;;;;4.40;1.30;;;;;;;11.78;90.01;98619.44;5017206;28;20539;-42
2021/10/21 01:21:50;;;;;;;4.88;1.10;;;;;;;11.74;89.92;98629.50;5017434;28;20377;-42
2021/10/21 01:24:15;;;;;;;4.80;1.10;;;;;;;11.68;90.17;98614.97;5016847;28;20029;-42
2021/10/21 01:26:46;;;;;;;4.57;1.10;;;;;;;11.62;90.85;98603.00;4999157;28;20022;-42
2021/10/21 01:29:13;;;;;;;2.85;0.93;;;;;;;11.51;90.63;98601.38;5016636;28;20032;-43
2021/10/21 01:31:39;;;;;;;5.35;1.00;;;;;;;11.53;91.25;98605.25;5016791;28;20101;-43
2021/10/21 01:34:07;;;;;;;2.88;0.90;;;;;;;11.48;90.53;98601.88;5016707;28;20451;-43
2021/10/21 01:36:32;;;;;;;6.60;1.58;;;;;;;11.50;90.25;98595.41;5016950;28;20032;-43
2021/10/21 01:38:57;;;;;;;6.45;1.20;;;;;;;11.51;89.50;98598.78;5016862;28;20443;-43
2021/10/21 01:41:23;;;;;;;4.35;0.82;;;;;;;11.45;90.31;98599.75;5016505;28;20025;-44
2021/10/21 01:43:48;;;;;;;5.97;1.30;;;;;;;11.44;89.35;98609.31;5016400;28;20405;-44
2021/10/21 01:46:13;;;;;;;8.25;1.33;;;;;;;11.47;86.92;98589.94;5016810;28;20076;-43
2021/10/21 01:48:39;;;;;;;5.18;1.15;;;;;;;11.52;86.75;98588.19;5016615;28;20444;-43
2021/10/21 01:51:04;;;;;;;6.25;1.00;;;;;;;11.49;86.47;98596.44;5016369;28;20489;-37
2021/10/21 01:53:30;;;;;;;9.95;1.10;;;;;;;11.44;86.90;98583.44;5016379;28;20484;-38
2021/10/21 01:55:55;;;;;;;7.30;1.00;;;;;;;11.52;86.18;98577.84;5016297;28;20033;-37
2021/10/21 01:58:21;;;;;;;7.13;1.20;;;;;;;11.56;86.14;98583.28;4998582;28;20032;-37
2021/10/21 02:00:46;;;;;;;5.93;0.93;;;;;;;11.56;83.88;98569.59;5016114;28;20018;-37
2021/10/21 02:03:11;;;;;;;4.13;0.90;;;;;;;11.51;83.94;98567.75;5016195;28;20022;-36
2021/10/21 02:05:37;;;;;;;5.85;1.15;;;;;;;11.53;82.92;98578.59;5016153;28;20524;-37
2021/10/21 02:08:02;;;;;;;5.30;1.10;;;;;;;11.59;82.46;98571.66;5016129;28;20032;-37
2021/10/21 02:10:28;;;;;;;7.22;1.27;;;;;;;11.53;81.88;98573.44;5015609;28;20116;-37
2021/10/21 02:12:53;;;;;;;5.43;1.10;;;;;;;11.57;81.74;98569.34;5016237;28;20030;-37
2021/10/21 02:15:18;;;;;;;3.30;1.00;;;;;;;11.49;82.17;98565.41;5016244;28;20388;-37
2021/10/21 02:17:45;;;;;;;3.35;0.95;;;;;;;11.50;81.52;98556.59;5016177;28;20539;-37
2021/10/21 02:20:11;;;;;;;7.25;1.05;;;;;;;11.58;81.51;98567.53;5015844;28;20049;-37
2021/10/21 02:22:38;;;;;;;7.07;1.67;;;;;;;11.47;81.04;98556.31;5016307;28;20457;-36
2021/10/21 02:25:05;;;;;;;6.50;1.10;;;;;;;11.47;80.60;98553.72;4998386;28;20045;-37
2021/10/21 02:27:31;;;;;;;6.30;1.02;;;;;;;11.39;81.61;98561.94;5015720;28;20117;-48
2021/10/21 02:29:56;;;;;;;6.88;0.80;;;;;;;11.29;81.63;98562.63;5016168;28;20101;-41
2021/10/21 02:32:21;;;;;;;4.82;1.05;;;;;;;11.32;81.87;98556.97;5015624;28;20028;-40
2021/10/21 02:34:46;;;;;;;5.60;1.15;;;;;;;11.30;83.20;98564.97;5015556;28;20464;-41
2021/10/21 02:37:12;;;;;;;9.93;1.23;;;;;;;11.22;82.10;98552.50;5015804;28;20034;-41
2021/10/21 02:39:37;;;;;;;3.50;0.68;;;;;;;11.21;83.67;98561.28;5015779;28;20152;-42
2021/10/21 02:42:02;;;;;;;6.25;1.02;;;;;;;11.15;84.06;98558.88;5015148;28;20031;-41
2021/10/21 02:44:28;;;;;;;5.40;1.50;;;;;;;10.99;85.47;98553.59;5015693;28;20048;-41
2021/10/21 02:46:53;;;;;;;7.05;1.05;;;;;;;10.91;85.05;98561.75;5015326;28;20058;-41
2021/10/21 02:49:18;;;;;;;6.90;1.10;;;;;;;10.87;86.94;98565.84;5015239;28;20108;-43
2021/10/21 02:51:44;;;;;;;7.90;1.20;;;;;;;10.78;87.41;98557.75;5015523;28;20026;-42
2021/10/21 02:54:09;;;;;;;2.40;0.85;;;;;;;10.76;87.48;98554.63;5015195;28;20073;-42
2021/10/21 02:56:35;;;;;;;5.10;0.93;;;;;;;10.75;86.66;98550.47;4997517;28;20120;-42
2021/10/21 02:59:00;;;;;;;4.35;0.90;;;;;;;10.70;87.90;98552.22;5015115;28;20187;-41
2021/10/21 03:01:25;;;;;;;6.57;1.30;;;;;;;10.76;88.48;98543.50;5015099;28;20030;-41
2021/10/21 03:03:51;;;;;;;7.93;1.02;;;;;;;10.71;89.46;98551.22;5015275;28;20064;-42
2021/10/21 03:06:16;;;;;;;4.50;0.98;;;;;;;10.71;89.24;98558.97;5014892;28;20431;-42
2021/10/21 03:08:41;;;;;;;6.68;0.98;;;;;;;10.70;88.92;98558.16;5015138;28;20037;-47
2021/10/21 03:11:06;;;;;;;6.13;1.20;;;;;;;10.76;89.14;98559.81;5014935;28;20488;-41
2021/10/21 03:13:32;;;;;;;5.47;1.23;;;;;;;10.70;89.00;98557.38;5014905;28;20022;-42
2021/10/21 03:15:57;;;;;;;2.92;0.90;;;;;;;10.75;89.26;98555.63;5015042;28;20022;-42
2021/10/21 03:18:22;;;;;;;9.43;1.15;;;;;;;10.69;89.63;98556.59;5014705;28;20407;-42
2021/10/21 03:20:47;;;;;;;6.88;1.38;;;;;;;10.72;89.31;98547.59;5014640;28;20026;-41
2021/10/21 03:23:13;;;;;;;4.97;1.00;;;;;;;10.75;89.01;98553.06;5014180;28;20496;-42
2021/10/21 03:25:38;;;;;;;5.35;1.15;;;;;;;10.76;88.95;98546.88;5014651;28;20022;-42
2021/10/21 03:28:04;;;;;;;6.57;1.30;;;;;;;10.79;89.86;98558.53;5014827;28;20034;-41
2021/10/21 03:30:29;;;;;;;3.70;1.23;;;;;;;10.79;89.36;98558.53;5014482;28;20037;-42
2021/10/21 03:32:54;;;;;;;7.13;1.25;;;;;;;10.87;89.42;98557.31;5014533;28;20030;-41
2021/10/21 03:35:20;;;;;;;7.53;1.40;;;;;;;10.86;89.29;98559.13;5014495;28;20047;-42
2021/10/21 03:37:45;;;;;;;7.47;1.20;;;;;;;10.82;89.43;98550.31;4996822;28;20029;-42
2021/10/21 03:40:11;;;;;;;7.35;1.50;;;;;;;10.87;89.61;98559.91;5014872;28;20022;-41
2021/10/21 03:42:37;;;;;;;5.30;1.20;;;;;;;10.89;88.83;98556.06;5014004;28;20057;-42
2021/10/21 03:45:04;;;;;;;6.95;1.35;;;;;;;10.94;88.84;98555.34;5014888;28;20026;-42
2021/10/21 03:47:30;;;;;;;7.10;1.10;;;;;;;10.95;89.34;98557.66;5014188;28;20041;-42
2021/10/21 03:49:55;;;;;;;8.93;1.25;;;;;;;10.89;89.49;98557.84;5014113;28;20026;-45
2021/10/21 03:52:21;;;;;;;4.80;1.27;;;;;;;10.89;89.24;98558.63;5014208;28;20022;-42
2021/10/21 03:54:47;;;;;;;9.43;1.70;;;;;;;10.98;89.77;98566.72;5014764;28;20022;-42
2021/10/21 03:57:12;;;;;;;6.80;1.58;;;;;;;11.03;90.32;98570.16;5014377;28;20025;-42
2021/10/21 03:59:38;;;;;;;8.30;1.92;;;;;;;11.00;89.74;98564.69;5014076;28;20104;-42
2021/10/21 04:02:04;;;;;;;6.60;1.35;;;;;;;11.06;89.31;98567.09;5013996;28;20065;-42
2021/10/21 04:04:29;;;;;;;11.98;1.90;;;;;;;11.06;88.48;98567.09;5014325;28;20021;-42
2021/10/21 04:06:54;;;;;;;6.20;1.52;;;;;;;11.10;89.51;98571.75;5014297;28;20041;-42
2021/10/21 04:09:20;;;;;;;5.55;1.40;;;;;;;11.07;90.17;98571.22;5014141;28;20057;-41
2021/10/21 04:11:45;;;;;;;5.15;1.17;;;;;;;11.09;90.18;98583.13;5014083;28;20022;-41
2021/10/21 04:14:10;;;;;;;6.30;1.10;;;;;;;11.04;91.16;98584.63;4996249;28;20029;-42
2021/10/21 04:16:36;;;;;;;8.48;1.92;;;;;;;11.01;91.01;98581.75;5014129;28;20396;-42
2021/10/21 04:19:01;;;;;;;5.25;1.20;;;;;;;10.98;90.60;98590.00;5014139;28;20029;-42
2021/10/21 04:21:26;;;;;;;5.45;1.42;;;;;;;11.05;90.88;98591.38;5014103;28;20021;-42
2021/10/21 04:23:54;;;;;;;7.25;1.42;;;;;;;11.13;91.01;98594.53;5013705;28;20385;-42
2021/10/21 04:26:19;;;;;;;8.43;1.55;;;;;;;11.09;90.85;98598.63;5013753;28;20073;-41
2021/10/21 04:28:44;;;;;;;5.30;1.50;;;;;;;11.02;92.01;98598.84;5013935;28;20030;-43
2021/10/21 04:31:10;;;;;;;7.60;1.65;;;;;;;10.95;92.06;98611.94;5013755;28;20101;-42
2021/10/21 04:33:35;;;;;;;6.70;1.58;;;;;;;10.94;91.84;98614.78;5016910;28;20472;-41
2021/10/21 04:36:00;;;;;;;6.18;1.70;;;;;;;11.00;91.87;98619.75;5020206;28;20022;-42
2021/10/21 04:38:25;;;;;;;8.07;1.77;;;;;;;11.01;91.41;98628.28;5020139;28;20429;-43
2021/10/21 04:40:51;;;;;;;6.53;1.38;;;;;;;10.97;91.90;98630.56;5020367;28;20029;-41
2021/10/21 04:43:16;;;;;;;5.28;1.80;;;;;;;10.95;92.36;98639.59;5020028;28;20409;-42
2021/10/21 04:45:42;;;;;;;9.75;1.95;;;;;;;11.00;91.65;98645.59;5020332;28;20483;-41
2021/10/21 04:48:07;;;;;;;6.32;1.58;;;;;;;11.03;91.93;98645.09;5020364;28;20101;-42
2021/10/21 04:50:32;;;;;;;6.80;1.75;;;;;;;11.01;92.15;98657.47;5019978;28;20384;-42
2021/10/21 04:52:58;;;;;;;5.40;1.60;;;;;;;10.89;92.44;98677.50;5020096;28;20034;-42
2021/10/21 04:55:23;;;;;;;12.80;1.98;;;;;;;10.99;92.61;98715.59;5003156;28;20113;-42
2021/10/21 04:57:49;;;;;;;6.47;1.92;;;;;;;10.91;92.98;98793.56;5019968;28;20381;-42
2021/10/21 05:00:16;;;;;;;3.78;1.17;;;;;;;10.50;89.04;98803.25;5020218;28;20488;-41
2021/10/21 05:02:41;;;;;;;1.67;0.50;;;;;;;10.26;87.67;98820.66;5019963;28;20036;-42
2021/10/21 05:05:07;;;;;;;3.72;0.77;;;;;;;10.08;88.21;98831.97;5002997;28;20034;-42
2021/10/21 05:07:32;;;;;;;1.75;0.63;;;;;;;9.99;90.21;98857.34;5020159;28;20112;-42
2021/10/21 05:09:57;;;;;;;7.65;0.70;;;;;;;9.93;91.60;98884.06;5019836;28;20030;-42
2021/10/21 05:12:23;;;;;;;5.10;0.90;;;;;;;9.88;92.34;98897.66;5019894;28;20084;-42
2021/10/21 05:14:49;;;;;;;2.75;0.80;;;;;;;9.85;91.82;98921.31;5020178;28;20096;-42
2021/10/21 05:17:14;;;;;;;5.88;0.75;;;;;;;9.83;92.27;98938.03;5019784;28;20060;-42
2021/10/21 05:19:39;;;;;;;2.58;0.50;;;;;;;9.79;91.85;98948.03;5019830;28;20097;-42
2021/10/21 05:22:04;;;;;;;5.30;0.90;;;;;;;9.80;92.54;98965.06;5020060;28;20034;-41
2021/10/21 05:24:30;;;;;;;4.88;0.95;;;;;;;9.83;92.04;98985.25;5020065;28;20076;-42
2021/10/21 05:26:55;;;;;;;5.43;1.00;;;;;;;9.82;92.31;99004.34;5019715;28;20049;-44
2021/10/21 05:29:22;;;;;;;6.82;1.00;;;;;;;9.93;92.28;99020.84;5019641;28;20029;-42
2021/10/21 05:31:47;;;;;;;7.35;0.90;;;;;;;9.87;91.77;99027.69;5019977;28;20104;-41
2021/10/21 05:34:13;;;;;;;3.30;0.70;;;;;;;9.76;91.75;99056.06;5019731;28;20053;-41
2021/10/21 05:36:38;;;;;;;7.90;1.00;;;;;;;9.81;90.88;99069.84;5019878;28;20017;-42
2021/10/21 05:39:03;;;;;;;3.70;0.80;;;;;;;9.88;91.04;99083.41;5019873;28;20025;-42
2021/10/21 05:41:29;;;;;;;4.68;0.90;;;;;;;9.83;91.46;99098.00;5019527;28;20029;-41
2021/10/21 05:43:55;;;;;;;5.60;0.65;;;;;;;9.88;91.22;99106.63;5019289;28;20049;-41
2021/10/21 05:46:21;;;;;;;2.20;0.60;;;;;;;9.86;91.87;99121.53;5015795;28;20046;-42
2021/10/21 05:48:47;;;;;;;5.72;0.80;;;;;;;9.88;91.90;99129.09;5016322;28;20029;-41
2021/10/21 05:51:13;;;;;;;6.82;0.90;;;;;;;9.92;91.73;99153.41;5016672;28;20353;-43
2021/10/21 05:53:38;;;;;;;6.28;0.85;;;;;;;9.92;91.63;99156.78;5016436;28;20026;-41
2021/10/21 05:56:03;;;;;;;6.72;1.00;;;;;;;10.00;91.48;99165.22;5016892;28;20025;-42
2021/10/21 05:58:29;;;;;;;8.13;0.80;;;;;;;10.01;91.71;99175.34;5016291;28;20029;-42
2021/10/21 06:00:54;;;;;;;14.27;1.50;;;;;;;10.05;91.69;99191.94;5016266;28;20044;-41
2021/10/21 06:03:19;;;;;;;12.27;1.35;;;;;;;10.06;91.08;99200.47;5016712;28;20376;-42
2021/10/21 06:05:44;;;;;;;12.90;1.00;;;;;;;10.04;90.95;99213.59;5016442;28;20026;-41
2021/10/21 06:08:10;;;;;;;9.35;1.88;;;;;;;10.08;90.93;99219.88;5015969;28;20032;-41
2021/10/21 06:10:35;;;;;;;12.30;1.77;;;;;;;10.10;90.63;99241.09;5016279;28;20026;-42
2021/10/21 06:13:01;;;;;;;14.20;1.77;;;;;;;10.13;91.17;99251.00;5016030;28;20034;-41
2021/10/21 06:15:27;;;;;;;12.98;1.60;;;;;;;10.12;90.97;99262.31;5016253;28;20025;-42
2021/10/21 06:17:55;;;;;;;9.65;1.63;;;;;;;10.10;90.21;99281.63;4998289;28;20034;-42
2021/10/21 06:20:20;;;;;;;13.27;2.38;;;;;;;10.15;90.84;99271.41;5016159;28;20531;-42
2021/10/21 06:22:46;;;;;;;12.93;2.05;;;;;;;10.16;90.81;99285.91;5016120;28;20022;-42
2021/10/21 06:25:12;;;;;;;12.73;2.03;;;;;;;10.22;90.87;99294.56;5016277;28;20029;-42
2021/10/21 06:27:38;;;;;;;14.25;2.00;;;;;;;10.15;90.01;99315.28;5015929;28;20099;-42
2021/10/21 06:30:05;;;;;;;12.88;1.88;;;;;;;10.11;89.32;99333.00;5016126;28;20457;-41
2021/10/21 06:32:30;;;;;;;10.73;1.88;;;;;;;10.11;89.49;99333.00;5015918;28;20029;-42
2021/10/21 06:34:56;;;;;;;15.23;1.83;;;;;;;10.03;89.09;99342.84;5015819;28;20488;-41
2021/10/21 06:37:21;;;;;;;14.13;1.80;;;;;;;10.19;89.25;99355.16;5016075;28;20033;-41
2021/10/21 06:39:55;;;;;;;16.45;1.90;;;;;;;10.23;88.47;99361.44;5015543;28;20113;-41
2021/10/21 06:42:22;;;;;;;12.05;2.10;;;;;;;10.24;89.04;99372.56;5015271;28;20053;-42
2021/10/21 06:44:48;;;;;;;16.13;2.15;;;;;;;10.32;88.82;99396.31;5015329;28;20025;-42
2021/10/21 06:47:13;;;;;;;15.10;2.03;;;;;;;10.38;87.41;99399.81;5015314;28;20528;-41
2021/10/21 06:49:39;;;;;;;15.82;1.90;;;;;;;10.39;88.04;99424.66;4997497;28;20026;-41
2021/10/21 06:52:04;;;;;;;13.25;2.45;;;;;;;10.43;87.67;99412.09;4997721;28;20080;-41
2021/10/21 06:54:29;;;;;;;13.20;2.08;;;;;;;10.39;88.20;99414.31;5015186;28;20384;-41
2021/10/21 06:56:55;;;;;;;17.88;2.20;;;;;;;10.36;87.11;99436.19;5014981;28;20025;-41
2021/10/21 06:59:20;;;;;;;16.88;2.75;;;;;;;10.50;85.86;99430.84;5015375;28;20101;-42
2021/10/21 07:01:45;;;;;;;13.48;2.63;;;;;;;10.52;84.22;99452.88;5015041;28;20519;-41
2021/10/21 07:04:11;;;;;;;23.02;2.45;;;;;;;10.61;85.15;99445.59;5015337;28;20032;-41
2021/10/21 07:06:36;;;;;;;8.77;1.60;;;;;;;10.55;81.87;99460.19;5015011;28;20030;-42
2021/10/21 07:09:02;;;;;;;13.27;1.85;;;;;;;10.60;82.67;99475.03;5015112;28;20029;-42
2021/10/21 07:11:27;;;;;;;9.18;1.77;;;;;;;10.61;82.18;99482.56;5015140;28;20116;-42
2021/10/21 07:13:52;;;;;;;12.70;1.65;;;;;;;10.50;81.09;99498.00;5015185;28;20026;-41
2021/10/21 07:16:18;;;;;;;9.35;2.40;;;;;;;10.54;79.28;99512.88;4997245;28;20018;-46
2021/10/21 07:18:43;;;;;;;14.68;2.03;;;;;;;10.49;82.05;99525.63;5015286;28;20037;-45
2021/10/21 07:21:09;;;;;;;10.20;2.28;;;;;;;10.58;77.33;99536.47;5015560;28;20022;-42
2021/10/21 07:23:34;;;;;;;11.52;2.45;;;;;;;10.54;77.84;99554.19;5014964;28;20033;-42
2021/10/21 07:26:03;;;;;;;11.10;1.92;;;;;;;10.58;78.56;99578.56;5014689;28;20350;-41
2021/10/21 07:28:28;;;;;;;10.23;1.90;;;;;;;10.47;80.66;99591.41;5014858;28;20033;-42
2021/10/21 07:30:57;;;;;;;11.48;1.98;;;;;;;10.27;83.52;99607.94;5014748;28;20029;-42
2021/10/21 07:33:22;;;;;;;14.43;2.30;;;;;;;10.24;83.67;99604.94;5014816;28;20049;-43
2021/10/21 07:35:47;;;;;;;9.18;1.98;;;;;;;10.26;85.03;99616.63;5014471;28;20069;-43
2021/10/21 07:38:13;;;;;;;22.10;2.72;;;;;;;10.20;84.92;99625.22;5015018;28;20026;-42
2021/10/21 07:40:38;;;;;;;17.45;2.40;;;;;;;10.26;85.53;99633.91;5014323;28;20362;-42
2021/10/21 07:43:04;;;;;;;13.85;2.47;;;;;;;10.42;85.16;99645.53;5014261;28;20053;-41
2021/10/21 07:45:30;;;;;;;13.10;2.78;;;;;;;10.67;84.91;99660.97;5014539;28;20064;-43
2021/10/21 07:47:55;;;;;;;16.02;2.72;;;;;;;10.77;84.17;99669.81;5014328;28;20022;-41
2021/10/21 07:50:21;;;;;;;13.75;2.60;;;;;;;10.93;85.94;99680.56;5014204;28;20088;-42
2021/10/21 07:52:47;;;;;;;15.25;2.95;;;;;;;11.27;83.65;99697.28;5014409;28;20029;-41
2021/10/21 07:55:13;;;;;;;15.02;2.50;;;;;;;11.60;81.33;99707.22;5014437;28;20053;-41
2021/10/21 07:57:38;;;;;;;13.60;2.58;;;;;;;13.32;74.41;99714.00;5013620;28;20033;-42
2021/10/21 08:00:07;;;;;;;14.88;2.63;;;;;;;15.25;67.63;99721.63;5014309;28;20048;-44
2021/10/21 08:02:32;;;;;;;14.68;2.60;;;;;;;12.84;72.86;99732.44;5013940;28;20029;-42
2021/10/21 08:08:19;;;;;;;12.15;2.63;;;;;;;12.31;77.70;99743.69;5013303;28;20097;-41
2021/10/21 08:10:44;;;;;;;10.05;2.28;;;;;;;12.35;74.94;99762.97;4996279;28;20026;-42
2021/10/21 08:13:11;;;;;;;15.52;2.67;;;;;;;13.81;68.40;99747.34;5013897;28;20026;-42
2021/10/21 08:15:37;;;;;;;14.27;2.30;;;;;;;12.95;68.54;99741.22;5014076;28;20375;-42
2021/10/21 08:18:02;;;;;;;15.45;2.28;;;;;;;12.82;70.92;99757.81;5014163;28;20101;-42
2021/10/21 08:20:28;;;;;;;12.65;2.40;;;;;;;12.96;70.84;99766.13;4996190;28;20109;-42
2021/10/21 08:22:54;;;;;;;19.15;2.80;;;;;;;14.97;62.91;99770.19;5014071;28;20029;-42
2021/10/21 08:25:19;;;;;;;11.65;2.17;;;;;;;17.09;57.04;99781.28;5014478;28;20101;-43
2021/10/21 08:27:46;;;;;;;8.95;2.20;;;;;;;15.22;61.04;99772.34;5013999;28;20022;-44
2021/10/21 08:30:12;;;;;;;13.10;2.05;;;;;;;13.95;68.12;99779.78;5013648;28;20069;-43
2021/10/21 08:32:38;;;;;;;8.32;1.63;;;;;;;12.84;68.57;99785.09;4996266;28;20046;-43
2021/10/21 08:35:06;;;;;;;11.95;1.92;;;;;;;13.35;68.69;99800.97;5013677;28;20476;-43
2021/10/21 08:37:32;;;;;;;13.88;2.30;;;;;;;13.58;68.37;99833.88;5013642;28;20029;-43
2021/10/21 08:39:57;;;;;;;12.05;1.98;;;;;;;17.06;54.20;99833.19;5014174;28;20021;-44
2021/10/21 08:42:23;;;;;;;10.57;1.95;;;;;;;18.62;50.79;99833.09;5013924;28;20097;-43
2021/10/21 08:44:48;;;;;;;9.07;1.92;;;;;;;19.07;48.98;99835.94;5013762;28;20021;-43
2021/10/21 08:47:20;;;;;;;10.57;2.10;;;;;;;19.44;48.22;99835.53;5013759;28;20443;-43
2021/10/21 08:49:47;;;;;;;11.48;1.90;;;;;;;19.04;48.93;99841.69;5013509;28;20386;-42
2021/10/21 08:52:15;;;;;;;8.88;2.30;;;;;;;18.37;52.30;99843.56;5013760;28;20026;-42
2021/10/21 08:54:41;;;;;;;9.23;1.95;;;;;;;19.43;50.55;99857.56;5013488;28;20026;-45
2021/10/21 08:57:12;;;;;;;5.85;1.73;;;;;;;18.01;52.70;99839.09;4995855;28;20041;-43
2021/10/21 08:59:40;;;;;;;8.07;1.83;;;;;;;16.26;57.05;99853.97;5013481;28;20029;-42
2021/10/21 09:02:25;;;;;;;10.05;1.90;;;;;;;14.03;65.61;99855.75;5013405;28;20048;-42
2021/10/21 09:05:07;;;;;;;10.05;2.00;;;;;;;12.71;70.11;99873.44;5013394;28;20018;-42
2021/10/21 09:10:17;;;;;;;5.95;1.52;;;;;;;12.44;75.23;99875.63;5013486;28;20107;-41
2021/10/21 09:12:46;;;;;;;11.15;1.50;;;;;;;12.36;73.90;99889.66;5013437;28;20116;-42
2021/10/21 09:15:17;;;;;;;9.70;1.83;;;;;;;12.41;75.04;99882.03;5013258;28;20168;-42
2021/10/21 09:17:44;;;;;;;8.43;1.42;;;;;;;12.52;74.89;99885.69;5013270;28;20037;-42
2021/10/21 09:20:34;;;;;;;9.45;1.33;;;;;;;12.39;74.48;99891.81;5014138;28;20060;-42
2021/10/21 09:23:05;;;;;;;6.65;1.20;;;;;;;12.07;74.14;99899.00;5017188;28;20026;-42
2021/10/21 09:25:31;;;;;;;3.55;0.73;;;;;;;11.88;74.69;99905.22;5017214;28;20026;-41
2021/10/21 09:27:58;;;;;;;6.82;1.40;;;;;;;11.74;76.94;99922.66;5017165;28;20022;-43
2021/10/21 09:30:33;;;;;;;5.93;1.08;;;;;;;11.64;76.79;99923.16;5016912;28;20150;-43
2021/10/21 09:33:07;;;;;;;8.00;1.75;;;;;;;11.74;78.74;99936.41;4999250;28;20033;-44
2021/10/21 09:35:35;;;;;;;4.53;1.30;;;;;;;11.75;79.22;99937.97;5017122;28;20099;-42
2021/10/21 09:38:01;;;;;;;5.45;1.40;;;;;;;11.75;79.88;99944.94;5016972;28;20037;-43
2021/10/21 09:40:34;;;;;;;7.82;1.35;;;;;;;11.70;79.37;99945.59;5017187;28;20026;-43
2021/10/21 09:43:00;;;;;;;7.32;1.70;;;;;;;11.50;78.84;99950.94;5016411;28;20050;-42
2021/10/21 09:45:31;;;;;;;6.20;1.60;;;;;;;11.56;78.94;99956.28;5016852;28;20029;-44
2021/10/21 09:47:58;;;;;;;13.23;1.88;;;;;;;11.45;79.60;99953.41;5016816;28;20117;-42
2021/10/21 09:50:46;;;;;;;7.97;1.50;;;;;;;11.27;80.14;99967.06;4999098;28;20036;-43
2021/10/21 09:53:29;;;;;;;7.32;1.45;;;;;;;11.28;80.23;99966.06;5016704;28;20029;-42
2021/10/21 09:56:08;;;;;;;13.07;1.65;;;;;;;11.05;82.19;99984.72;5016678;28;20026;-42
2021/10/21 09:58:36;;;;;;;8.80;1.73;;;;;;;10.67;85.96;99986.53;4998766;28;20025;-42
2021/10/21 10:01:10;;;;;;;12.13;2.05;;;;;;;10.73;87.02;100004.59;5016493;28;20068;-42
2021/10/21 10:03:42;;;;;;;13.60;1.98;;;;;;;10.54;87.57;100000.31;4998541;28;20033;-42
2021/10/21 10:06:08;;;;;;;7.57;1.43;;;;;;;10.49;87.57;100000.13;5016478;28;20488;-42
2021/10/21 10:08:35;;;;;;;10.25;1.80;;;;;;;10.45;88.82;100007.50;5016715;28;20187;-42
2021/10/21 10:11:08;;;;;;;8.70;1.55;;;;;;;10.37;89.11;100012.88;5016338;28;20461;-42
2021/10/21 10:13:34;;;;;;;;;;;;;;;10.53;88.33;100019.38;5016725;28;20066;-42
2021/10/21 10:16:00;;;;;;;13.45;1.90;;;;;;;10.68;87.79;100019.13;5016097;28;20280;-43
2021/10/21 10:18:32;;;;;;;12.70;2.55;;;;;;;10.71;88.80;100040.19;4998416;28;20030;-42
2021/10/21 10:21:10;;;;;;;13.73;1.70;;;;;;;10.67;87.75;100048.53;5015939;28;20022;-43
2021/10/21 10:23:47;;;;;;;9.32;1.73;;;;;;;10.69;88.34;100046.56;5016099;28;20040;-42
2021/10/21 10:26:12;;;;;;;9.32;1.65;;;;;;;10.62;88.26;100056.94;4999485;28;20147;-42
2021/10/21 10:28:53;;;;;;;11.02;1.90;;;;;;;10.59;87.71;100055.53;4998157;28;20029;-42
2021/10/21 10:31:41;;;;;;;10.32;1.70;;;;;;;10.61;87.18;100074.19;5015196;28;20117;-42
2021/10/21 10:34:26;;;;;;;11.80;1.88;;;;;;;10.76;88.58;100073.16;5016259;28;20022;-42
2021/10/21 10:36:51;;;;;;;11.35;2.53;;;;;;;10.71;87.83;100073.78;5015842;28;20465;-42
2021/10/21 10:39:56;;;;;;;13.40;2.70;;;;;;;10.67;89.45;100090.69;5015785;28;20033;-42
2021/10/21 10:42:31;;;;;;;8.77;2.00;;;;;;;10.63;89.41;100096.47;4997600;28;20045;-42
2021/10/21 10:44:59;;;;;;;8.48;1.92;;;;;;;10.94;89.37;100117.25;5015465;28;20189;-42
2021/10/21 10:47:50;;;;;;;5.28;1.23;;;;;;;10.74;88.19;100137.97;5015553;28;20030;-42
2021/10/21 10:50:36;;;;;;;13.40;1.70;;;;;;;10.45;87.98;100152.16;4997677;28;20068;-42
2021/10/21 10:53:06;;;;;;;8.85;1.60;;;;;;;10.31;87.62;100155.75;5005150;28;20041;-42
2021/10/21 10:55:39;;;;;;;4.15;0.98;;;;;;;9.97;87.26;100174.78;5016399;28;20500;-43
2021/10/21 10:58:14;;;;;;;6.68;1.52;;;;;;;10.01;88.71;100171.63;5015448;28;20026;-42
2021/10/21 11:00:55;;;;;;;10.25;1.58;;;;;;;10.06;88.44;100192.44;5015446;28;20372;-42
2021/10/21 11:03:31;;;;;;;6.40;1.30;;;;;;;10.04;87.48;100197.03;5015416;28;20483;-42
2021/10/21 11:06:04;;;;;;;6.20;1.10;;;;;;;9.89;86.78;100207.50;5015244;28;20034;-42
2021/10/21 11:09:02;;;;;;;7.63;1.02;;;;;;;9.57;87.16;100192.75;4997423;28;20022;-42
2021/10/21 11:11:58;;;;;;;5.75;1.10;;;;;;;9.65;86.60;100218.38;5014842;28;20029;-42
2021/10/21 11:14:39;;;;;;;6.80;1.17;;;;;;;9.68;86.31;100230.91;5015184;28;20033;-43
2021/10/21 11:17:06;;;;;;;6.45;1.00;;;;;;;9.88;86.26;100229.16;5014845;28;20071;-49
2021/10/21 11:19:43;;;;;;;5.60;1.10;;;;;;;9.92;86.07;100230.34;5015005;28;20380;-41
2021/10/21 11:22:18;;;;;;;9.27;1.40;;;;;;;9.91;86.66;100227.97;5015375;28;20115;-41
2021/10/21 11:24:43;;;;;;;5.68;1.00;;;;;;;10.00;87.01;100236.34;5014743;28;20022;-41
2021/10/21 11:27:09;;;;;;;9.13;1.38;;;;;;;9.99;85.68;100234.75;5014949;28;20036;-41
2021/10/21 11:29:35;;;;;;;7.97;1.27;;;;;;;9.91;85.93;100233.13;5014547;28;20061;-42
2021/10/21 11:32:04;;;;;;;10.68;1.50;;;;;;;9.90;85.45;100240.09;5014785;28;20021;-42
2021/10/21 11:34:30;;;;;;;9.20;1.50;;;;;;;10.00;85.74;100246.66;5014983;28;20026;-42
2021/10/21 11:36:55;;;;;;;10.13;1.65;;;;;;;10.04;86.11;100235.75;5014715;28;20551;-41
2021/10/21 11:39:38;;;;;;;6.35;1.33;;;;;;;10.28;84.75;100254.28;4996737;28;20431;-42